Black Canyon (237) Station Data

Red Flag Warning: No
Fire Weather Zone: 250
SDGE Region: North East
Lat/Lon: 33.099/-116.828

Observations

Time Wind Speed/Gust Temp(F) RH Fuel Moist Fuel Temp(F) Dewpt(F) Tmax(F) Tmin(F) Accum Precip 10-min Precip SL Press(mb)
5/24 8:20am 145 3 G 6 68° 55% - - 51° 70.2° 57.8° - - -
5/24 8:10am 318 1 G 2 63° 68% - - 52° 70.2° 57.8° - - -
5/24 8:00am 329 3 G 8 61° 72% - - 52° 70.2° 57.8° - - -
5/24 7:50am 336 4 G 7 64° 57% - - 49° 70.2° 57.8° - - -
5/24 7:40am 344 3 G 5 60° 72% - - 51° 70.2° 57.8° - - -
5/24 7:30am 165 3 G 7 58° 75% - - 51° 70.2° 57.8° - - -
5/24 7:20am 157 6 G 10 59° 72% - - 50° 70.2° 57.8° - - -
5/24 7:10am 197 2 G 4 60° 67% - - 49° 70.2° 59.1° - - -
5/24 7:00am 151 6 G 8 59° 67% - - 49° 70.2° 59.1° - - -
5/24 6:50am 152 7 G 10 62° 58% - - 47° 70.2° 59.8° - - -
5/24 6:40am 158 2 G 9 67° 43% - - 44° 70.2° 60.2° - - -
5/24 6:30am 217 2 G 4 67° 40% - - 42° 70.2° 60.2° - - -
5/24 6:20am 148 2 G 5 67° 41% - - 42° 70.2° 60.2° - - -
5/24 6:10am 43 5 G 8 69° 36% - - 41° 70.2° 60.2° - - -
5/24 6:00am 55 6 G 9 67° 39% - - 41° 70.2° 60.2° - - -
5/24 5:50am 49 6 G 8 67° 39% - - 42° 70.2° 60.2° - - -
5/24 5:40am 38 6 G 10 69° 35% - - 41° 70.2° 60.2° - - -
5/24 5:30am 52 5 G 10 69° 37% - - 41° 70.2° 60.2° - - -
5/24 5:20am 40 3 G 6 67° 41% - - 43° 70.2° 60.2° - - -
5/24 5:10am 54 5 G 8 68° 40% - - 43° 70.2° 60.2° - - -
5/24 5:00am 63 5 G 7 67° 45% - - 45° 70.2° 60.2° - - -
5/24 4:50am 153 3 G 4 61° 59% - - 46° 70.2° 60.2° - - -
5/24 4:40am 165 4 G 5 61° 59% - - 47° 70.2° 60.3° - - -
5/24 4:30am 109 4 G 6 66° 48% - - 46° 70.2° 63° - - -
5/24 4:20am 78 6 G 7 69° 44% - - 46° 70.2° 64.2° - - -
5/24 4:10am 76 5 G 6 69° 45% - - 46° 70.2° 64.2° - - -
5/24 4:00am 68 2 G 4 69° 46% - - 47° 70.2° 64.2° - - -
5/24 3:50am 75 3 G 5 69° 48% - - 48° 70.2° 64.2° - - -
5/24 3:40am 96 4 G 5 67° 51% - - 48° 70.2° 64.2° - - -
5/24 3:30am 13 1 G 4 65° 55% - - 48° 70.2° 64.2° - - -
5/24 3:20am 353 2 G 3 65° 53% - - 48° 70.2° 64.2° - - -
5/24 3:10am 3 3 G 4 66° 53% - - 48° 70.2° 64.2° - - -
5/24 3:00am 44 0 G 3 65° 56% - - 49° 70.2° 64.2° - - -
5/24 2:50am 266 0 G 1 65° 55% - - 48° 70.2° 64.2° - - -
5/24 2:40am 296 1 G 2 65° 55% - - 48° 70.2° 64.3° - - -
5/24 2:30am 181 2 G 3 65° 53% - - 48° 70.2° 64.3° - - -
5/24 2:20am 234 1 G 2 65° 53% - - 47° 70.2° 64.3° - - -
5/24 2:10am 146 2 G 5 66° 50% - - 47° 70.2° 64.3° - - -
5/24 2:00am 92 5 G 10 69° 45% - - 47° 70.2° 64.3° - - -
5/24 1:50am 74 8 G 10 70° 42% - - 46° 70.2° 64.3° - - -
5/24 1:40am 71 7 G 11 68° 44% - - 46° 69.7° 64.3° - - -
5/24 1:30am 162 1 G 3 65° 57% - - 49° 68.8° 64.3° - - -
5/24 1:20am 168 1 G 3 66° 57% - - 50° 68.8° 64.5° - - -
5/24 1:10am 9 1 G 3 66° 59% - - 51° 68.8° 64.8° - - -
5/24 1:00am 132 1 G 2 67° 55% - - 50° 68.8° 65.3° - - -
5/24 12:50am 221 0 G 2 67° 55% - - 51° 68.8° 65.3° - - -
5/24 12:40am 3 2 G 4 68° 54% - - 51° 68.8° 65.3° - - -
5/24 12:30am 46 2 G 4 68° 53% - - 51° 68.7° 65.3° - - -
5/24 12:20am 111 3 G 5 67° 57% - - 51° 67.5° 65.3° - - -
5/24 12:10am 144 3 G 4 67° 59% - - 52° 67.5° 65.3° - - -
5/24 12:00am 155 1 G 3 67° 57% - - 52° 88.9° 65.2° - - -
5/23 11:50pm 258 0 G 2 70° 52% - - 51° 88.9° 65.2° - - -
5/23 11:40pm 76 2 G 3 71° 49% - - 51° 88.9° 65.2° - - -
5/23 11:30pm 11 2 G 3 69° 53% - - 52° 88.9° 65.2° - - -
5/23 11:20pm 340 1 G 2 68° 55% - - 51° 88.9° 65.2° - - -
5/23 11:10pm 329 1 G 2 68° 55% - - 51° 88.9° 65.2° - - -
5/23 11:00pm 157 0 G 2 67° 57% - - 51° 88.9° 65.2° - - -
5/23 10:50pm 151 2 G 5 67° 58% - - 52° 88.9° 65.2° - - -
5/23 10:40pm 209 1 G 2 70° 46% - - 48° 88.9° 65.2° - - -
5/23 10:30pm 23 1 G 4 70° 47% - - 49° 88.9° 65.2° - - -
5/23 10:20pm 207 0 G 1 70° 44% - - 47° 88.9° 65.2° - - -
5/23 10:10pm 20 1 G 4 71° 42% - - 47° 88.9° 65.2° - - -
5/23 10:00pm 65 3 G 4 72° 38% - - 45° 88.9° 65.2° - - -
5/23 9:50pm 72 4 G 6 71° 40% - - 46° 88.9° 65.2° - - -
5/23 9:40pm 97 4 G 5 71° 44% - - 48° 88.9° 65.2° - - -
5/23 9:30pm 118 4 G 5 70° 48% - - 50° 88.9° 65.2° - - -
5/23 9:20pm 125 4 G 5 70° 49% - - 50° 88.9° 65.2° - - -
5/23 9:10pm 109 5 G 6 71° 50% - - 51° 88.9° 65.2° - - -
5/23 9:00pm 113 4 G 7 70° 50% - - 51° 88.9° 65.2° - - -
5/23 8:50pm 121 5 G 7 70° 50% - - 51° 88.9° 65.2° - - -
5/23 8:40pm 102 5 G 6 73° 45% - - 50° 88.9° 65.2° - - -
5/23 8:30pm 99 5 G 6 73° 44% - - 49° 88.9° 65.2° - - -
5/23 8:20pm 94 5 G 7 71° 50% - - 51° 88.9° 65.2° - - -
5/23 8:10pm 55 4 G 5 72° 51% - - 53° 88.9° 65.2° - - -
5/23 8:00pm 94 3 G 4 71° 51% - - 53° 88.9° 65.2° - - -
5/23 7:50pm 131 3 G 5 72° 50% - - 53° 88.9° 65.2° - - -
5/23 7:40pm 149 2 G 4 73° 48% - - 52° 88.9° 65.2° - - -
5/23 7:30pm 165 3 G 4 75° 45% - - 52° 88.9° 65.2° - - -
5/23 7:20pm 186 1 G 2 76° 42% - - 51° 88.9° 65.2° - - -
5/23 7:10pm 206 2 G 3 76° 41% - - 51° 88.9° 65.2° - - -
5/23 7:00pm 193 3 G 5 77° 40% - - 51° 88.9° 65.2° - - -
5/23 6:50pm 181 4 G 7 78° 38% - - 51° 88.9° 65.2° - - -
5/23 6:40pm 202 3 G 6 80° 36% - - 50° 88.9° 65.2° - - -
5/23 6:30pm 249 4 G 6 81° 34% - - 50° 88.9° 65.2° - - -
5/23 6:20pm 249 4 G 7 82° 33% - - 50° 88.9° 65.2° - - -
5/23 6:10pm 255 5 G 8 83° 32% - - 50° 88.9° 65.2° - - -
5/23 6:00pm 279 3 G 6 84° 33% - - 51° 88.9° 65.2° - - -
5/23 5:50pm 266 3 G 6 84° 33% - - 52° 88.9° 65.2° - - -
5/23 5:40pm 270 3 G 5 84° 33% - - 52° 88.9° 65.2° - - -
5/23 5:30pm 276 3 G 6 84° 34% - - 52° 88.9° 65.2° - - -
5/23 5:20pm 280 3 G 7 84° 33% - - 52° 88.9° 65.2° - - -
5/23 5:10pm 257 3 G 7 84° 33% - - 52° 88.9° 65.2° - - -
5/23 5:00pm 283 3 G 5 84° 33% - - 52° 88.9° 65.2° - - -
5/23 4:50pm 290 3 G 5 84° 33% - - 52° 88.9° 65.2° - - -
5/23 4:40pm 269 2 G 5 84° 34% - - 52° 88.9° 65.2° - - -
5/23 4:30pm 260 3 G 7 84° 35% - - 53° 88.9° 65.2° - - -
5/23 4:20pm 275 3 G 7 82° 36% - - 53° 88.9° 65.2° - - -
5/23 4:10pm 248 3 G 6 83° 35% - - 53° 88.9° 65.2° - - -
5/23 4:00pm 203 4 G 7 82° 37% - - 53° 88.9° 65.2° - - -
5/23 3:50pm 203 4 G 8 82° 38% - - 54° 88.9° 65.2° - - -
5/23 3:40pm 245 3 G 9 82° 39% - - 55° 88.9° 65.2° - - -
5/23 3:30pm 294 3 G 8 81° 41% - - 55° 88.9° 65.2° - - -
5/23 3:20pm 279 3 G 6 80° 42% - - 55° 88.9° 65.2° - - -
5/23 3:10pm 264 3 G 7 81° 40% - - 55° 88.9° 65.2° - - -
5/23 3:00pm 240 4 G 7 80° 41% - - 54° 88.9° 65.2° - - -
5/23 2:50pm 233 7 G 11 79° 41% - - 54° 88.9° 65.2° - - -
5/23 2:40pm 257 4 G 9 80° 43% - - 55° 88.9° 65.2° - - -
5/23 2:30pm 191 6 G 12 79° 43% - - 55° 88.9° 65.2° - - -
5/23 2:20pm 190 6 G 10 79° 43% - - 55° 88.9° 65.2° - - -
5/23 2:10pm 194 7 G 10 79° 44% - - 55° 88.9° 65.2° - - -
5/23 2:00pm 192 7 G 10 80° 41% - - 55° 88.9° 65.2° - - -
5/23 1:50pm 256 4 G 8 82° 40% - - 55° 88.9° 65.2° - - -
5/23 1:40pm 275 3 G 7 81° 40% - - 55° 88.9° 65.2° - - -
5/23 1:30pm 287 4 G 8 82° 39% - - 55° 88.9° 65.2° - - -
5/23 1:20pm 268 3 G 9 83° 38% - - 55° 88.9° 65.2° - - -
5/23 1:10pm 208 4 G 7 82° 37% - - 54° 88.9° 65.2° - - -
5/23 1:00pm 276 4 G 9 83° 37% - - 54° 88.9° 65.2° - - -
5/23 12:50pm 271 4 G 8 83° 36% - - 53° 88.9° 65.2° - - -
5/23 12:40pm 283 4 G 7 84° 34% - - 52° 88.9° 65.2° - - -
5/23 12:30pm 278 5 G 10 85° 31% - - 51° 88.9° 65.2° - - -
5/23 12:20pm 294 5 G 8 87° 27% - - 49° 88.9° 65.2° - - -
5/23 12:10pm 210 5 G 11 87° 25% - - 47° 88.9° 65.2° - - -
5/23 12:00pm 245 5 G 9 88° 24% - - 47° 88.9° 65.2° - - -
5/23 11:50am 299 4 G 8 88° 21% - - 43° 88.9° 65.2° - - -
5/23 11:40am 275 3 G 7 88° 20% - - 42° 88.7° 65.2° - - -
5/23 11:30am 279 4 G 7 88° 19% - - 40° 88.3° 65.2° - - -
5/23 11:20am 294 3 G 7 88° 20% - - 41° 88° 65.2° - - -
5/23 11:10am 297 2 G 6 88° 20% - - 41° 88° 65.2° - - -
5/23 11:00am 308 3 G 5 86° 20% - - 41° 86.7° 65.2° - - -
5/23 10:50am 271 3 G 5 85° 21% - - 41° 86.3° 65.2° - - -
5/23 10:40am 286 3 G 5 85° 22% - - 41° 84.9° 65.2° - - -
5/23 10:30am 289 3 G 5 84° 22% - - 41° 84.7° 65.2° - - -
5/23 10:20am 296 2 G 5 83° 24% - - 43° 83.9° 65.2° - - -
5/23 10:10am 333 2 G 4 83° 25% - - 44° 83.8° 65.2° - - -
5/23 10:00am 298 1 G 3 83° 26% - - 45° 83.3° 65.2° - - -
5/23 9:50am 303 2 G 3 81° 28% - - 45° 82° 65.2° - - -
5/23 9:40am 320 2 G 4 79° 31% - - 46° 81.6° 65.2° - - -
5/23 9:30am 296 2 G 5 79° 33% - - 48° 81.6° 65.2° - - -
5/23 9:20am 273 2 G 3 81° 27% - - 43° 81.6° 65.2° - - -
5/23 9:10am 316 1 G 3 81° 25% - - 41° 81.6° 65.2° - - -
5/23 9:00am 351 1 G 2 81° 27% - - 43° 81.6° 65.2° - - -
5/23 8:50am 209 0 G 2 79° 31% - - 46° 79.3° 65.2° - - -
5/23 8:40am 244 0 G 1 78° 33% - - 46° 78.7° 65.2° - - -
5/23 8:30am 123 2 G 3 74° 35% - - 45° 76.3° 65.2° - - -
5/23 8:20am 174 1 G 2 74° 33% - - 43° 76.2° 65.2° - - -
5/23 8:10am 178 2 G 2 72° 34% - - 42° 76.2° 65.2° - - -
5/23 8:00am 153 2 G 3 71° 38% - - 44° 76.2° 65.2° - - -
5/23 7:50am 150 3 G 4 70° 41% - - 45° 76.2° 65.2° - - -
5/23 7:40am 149 4 G 4 71° 35% - - 42° 76.2° 65.2° - - -
5/23 7:30am 165 3 G 4 74° 33% - - 43° 76.2° 65.2° - - -
5/23 7:20am 156 0 G 2 76° 30% - - 42° 76.2° 65.2° - - -
5/23 7:10am 153 0 G 1 74° 30% - - 41° 75.1° 65.2° - - -
5/23 7:00am 173 1 G 2 73° 29% - - 39° 73.8° 65.2° - - -
5/23 6:50am 150 0 G 2 73° 30% - - 40° 73.4° 65.2° - - -
5/23 6:40am 136 0 G 2 71° 31% - - 39° 73.3° 65.2° - - -
5/23 6:30am 57 1 G 3 70° 32% - - 39° 71.4° 65.2° - - -
5/23 6:20am 5 1 G 2 71° 31% - - 38° 71.4° 65.2° - - -
5/23 6:10am 343 0 G 1 70° 32% - - 38° 70.4° 65.2° - - -
5/23 6:00am 46 1 G 3 69° 32% - - 39° 70.4° 65.2° - - -